createdAt,value
2023-05-09T00:01:54.141Z,49.67
2023-05-09T00:04:26.729Z,50.21
2023-05-09T00:06:58.402Z,50.34
2023-05-09T00:09:30.195Z,50.15
2023-05-09T00:12:02.679Z,49.91
2023-05-09T00:14:34.234Z,49.86
2023-05-09T00:17:06.103Z,49.79
2023-05-09T00:19:39.273Z,49.89
2023-05-09T00:22:13.282Z,49.95
2023-05-09T00:24:45.062Z,49.75
2023-05-09T00:27:16.754Z,50.07
2023-05-09T00:29:48.425Z,50.08
2023-05-09T00:32:20.216Z,50.04
2023-05-09T00:34:51.964Z,50.38
2023-05-09T00:37:24.123Z,50.09
2023-05-09T00:39:55.710Z,49.96
2023-05-09T00:42:27.546Z,49.79
2023-05-09T00:44:59.137Z,49.64
2023-05-09T00:47:32.098Z,49.71
2023-05-09T00:50:03.875Z,49.81
2023-05-09T00:52:35.718Z,49.80
2023-05-09T00:55:08.507Z,49.57
2023-05-09T00:57:41.599Z,49.43
2023-05-09T01:00:14.224Z,49.43
2023-05-09T01:02:48.312Z,49.39
2023-05-09T01:05:20.792Z,49.26
2023-05-09T01:08:14.146Z,49.39
2023-05-09T01:10:58.024Z,49.49
2023-05-09T01:13:38.904Z,50.20
2023-05-09T01:16:15.596Z,50.90
2023-05-09T01:19:02.315Z,49.78
2023-05-09T01:21:34.328Z,49.44
2023-05-09T01:24:44.750Z,49.50
2023-05-09T01:27:23.436Z,49.01
2023-05-09T01:29:59.350Z,48.87
2023-05-09T01:32:41.274Z,48.94
2023-05-09T01:35:14.839Z,48.83
2023-05-09T01:37:46.724Z,48.72
2023-05-09T01:40:20.308Z,48.61
2023-05-09T01:43:06.689Z,48.55
2023-05-09T01:45:41.569Z,48.60
2023-05-09T01:48:13.305Z,49.00
2023-05-09T01:50:45.648Z,48.70
2023-05-09T01:53:17.610Z,48.69
2023-05-09T01:55:49.165Z,48.57
2023-05-09T01:58:20.976Z,48.67
2023-05-09T02:00:52.827Z,48.51
2023-05-09T02:03:24.773Z,48.60
2023-05-09T02:05:56.666Z,48.63
2023-05-09T02:08:28.513Z,48.61
2023-05-09T02:11:00.385Z,48.88
2023-05-09T02:13:32.565Z,48.95
2023-05-09T02:16:04.555Z,48.52
2023-05-09T02:18:36.462Z,48.06
2023-05-09T02:21:08.613Z,48.06
2023-05-09T02:23:40.608Z,47.96
2023-05-09T02:26:12.991Z,47.96
2023-05-09T02:28:44.901Z,48.13
2023-05-09T02:31:16.851Z,48.37
2023-05-09T02:33:48.567Z,48.57
2023-05-09T02:36:20.066Z,48.61
2023-05-09T02:38:51.637Z,48.55
2023-05-09T02:41:23.263Z,48.62
2023-05-09T02:43:54.940Z,48.93
2023-05-09T02:46:27.102Z,48.91
2023-05-09T02:48:58.972Z,48.75
2023-05-09T02:51:32.359Z,48.49
2023-05-09T02:54:04.006Z,48.46
2023-05-09T02:56:36.395Z,48.57
2023-05-09T02:59:08.318Z,48.51
2023-05-09T03:01:40.294Z,48.65
2023-05-09T03:04:12.963Z,48.54
2023-05-09T03:06:45.209Z,48.82
2023-05-09T03:09:16.994Z,48.79
2023-05-09T03:11:48.967Z,49.24
2023-05-09T03:14:20.750Z,49.21
2023-05-09T03:16:52.371Z,48.63
2023-05-09T03:19:25.670Z,48.41
2023-05-09T03:21:57.397Z,48.46
2023-05-09T03:24:30.000Z,48.43
2023-05-09T03:27:01.557Z,48.16
2023-05-09T03:29:34.133Z,48.86
2023-05-09T03:32:06.241Z,48.78
2023-05-09T03:34:38.041Z,48.65
2023-05-09T03:37:09.938Z,48.51
2023-05-09T03:39:43.704Z,48.39
2023-05-09T03:42:15.823Z,48.55
2023-05-09T03:44:49.024Z,48.13
2023-05-09T03:47:20.646Z,47.89
2023-05-09T03:49:53.697Z,48.38
2023-05-09T03:52:26.377Z,47.62
2023-05-09T03:55:04.309Z,47.76
2023-05-09T03:57:37.699Z,48.87
2023-05-09T04:00:10.446Z,48.52
2023-05-09T04:02:53.212Z,48.29
2023-05-09T04:05:27.517Z,48.11
2023-05-09T04:07:59.504Z,47.68
2023-05-09T04:10:32.675Z,47.99
2023-05-09T04:13:05.317Z,47.65
2023-05-09T04:15:37.066Z,47.50
2023-05-09T04:18:10.912Z,47.33
2023-05-09T04:20:42.488Z,47.27
2023-05-09T04:23:14.950Z,47.35
2023-05-09T04:25:47.078Z,47.63
2023-05-09T04:28:19.268Z,47.30
2023-05-09T04:30:51.619Z,46.98
2023-05-09T04:33:24.427Z,46.89
2023-05-09T04:35:57.892Z,46.76
2023-05-09T04:38:30.090Z,46.87
2023-05-09T04:41:02.239Z,47.49
2023-05-09T04:43:34.239Z,48.05
2023-05-09T04:46:06.095Z,47.93
2023-05-09T04:48:38.038Z,47.37
2023-05-09T04:51:09.766Z,47.09
2023-05-09T04:53:41.400Z,47.29
2023-05-09T04:56:13.380Z,47.71
2023-05-09T04:58:45.501Z,47.30
2023-05-09T05:01:18.330Z,46.79
2023-05-09T05:03:50.412Z,46.67
2023-05-09T05:06:22.105Z,46.26
2023-05-09T05:08:54.408Z,46.22
2023-05-09T05:11:26.706Z,46.15
2023-05-09T05:13:58.702Z,45.92
2023-05-09T05:16:30.553Z,45.67
2023-05-09T05:19:02.577Z,45.40
2023-05-09T05:21:34.768Z,46.22
2023-05-09T05:24:06.785Z,45.20
2023-05-09T05:26:38.890Z,45.33
2023-05-09T05:29:10.911Z,45.49
2023-05-09T05:31:42.684Z,45.40
2023-05-09T05:34:16.050Z,45.08
2023-05-09T05:36:48.216Z,44.87
2023-05-09T05:39:19.951Z,44.42
2023-05-09T05:41:52.848Z,44.85
2023-05-09T05:44:24.727Z,44.94
2023-05-09T05:46:56.733Z,45.14
2023-05-09T05:49:30.258Z,43.79
2023-05-09T05:52:02.392Z,43.23
2023-05-09T05:54:34.485Z,42.67
2023-05-09T05:57:08.191Z,42.45
2023-05-09T05:59:40.112Z,43.00
2023-05-09T06:02:12.276Z,42.27
2023-05-09T06:04:44.769Z,41.84
2023-05-09T06:07:16.747Z,41.59
2023-05-09T06:09:49.920Z,40.98
2023-05-09T06:12:21.788Z,40.74
2023-05-09T06:14:53.698Z,40.29
2023-05-09T06:17:26.242Z,40.36
2023-05-09T06:19:59.511Z,40.82
2023-05-09T06:22:31.185Z,40.69
2023-05-09T06:25:02.772Z,39.98
2023-05-09T06:27:34.780Z,40.05
2023-05-09T06:30:26.161Z,39.09
2023-05-09T06:32:52.036Z,38.85
2023-05-09T06:35:23.806Z,37.27
2023-05-09T06:37:55.569Z,37.86
2023-05-09T06:40:27.413Z,37.80
2023-05-09T06:42:58.982Z,37.75
2023-05-09T06:45:31.199Z,37.33
2023-05-09T06:48:02.832Z,36.84
2023-05-09T06:50:34.980Z,35.17
2023-05-09T06:53:07.047Z,35.49
2023-05-09T06:55:39.218Z,35.02
2023-05-09T06:58:11.408Z,34.83
2023-05-09T07:00:43.625Z,34.88
2023-05-09T07:03:16.159Z,34.09
2023-05-09T07:05:47.804Z,34.56
2023-05-09T07:08:19.840Z,33.95
2023-05-09T07:10:51.578Z,33.03
2023-05-09T07:13:23.531Z,32.41
2023-05-09T07:15:56.301Z,33.54
2023-05-09T07:18:29.755Z,31.08
2023-05-09T07:21:01.694Z,29.69
2023-05-09T07:23:34.099Z,29.07
2023-05-09T07:26:06.039Z,29.24
2023-05-09T07:28:37.621Z,27.70
2023-05-09T07:31:09.456Z,28.58
2023-05-09T07:33:41.377Z,28.64
2023-05-09T07:36:14.931Z,28.76
2023-05-09T07:38:48.166Z,27.42
2023-05-09T07:41:20.169Z,27.44
2023-05-09T07:43:51.877Z,26.78
2023-05-09T07:46:24.536Z,25.58
2023-05-09T07:48:56.838Z,25.68
2023-05-09T07:51:28.552Z,26.71
2023-05-09T07:54:00.526Z,27.42
2023-05-09T07:56:32.803Z,28.19
2023-05-09T07:59:07.529Z,26.31
2023-05-09T08:01:39.528Z,26.71
2023-05-09T08:04:11.458Z,26.55
2023-05-09T08:06:43.928Z,28.44
2023-05-09T08:09:16.699Z,26.88
2023-05-09T08:11:48.814Z,26.67
2023-05-09T08:14:20.852Z,26.77
2023-05-09T08:16:52.589Z,26.29
2023-05-09T08:19:26.433Z,25.58
2023-05-09T08:21:58.166Z,26.07
2023-05-09T08:24:29.804Z,25.33
2023-05-09T08:27:01.576Z,24.58
2023-05-09T08:29:33.715Z,24.70
2023-05-09T08:32:06.147Z,23.86
2023-05-09T08:34:38.337Z,22.99
2023-05-09T08:37:12.214Z,22.39
2023-05-09T08:39:44.368Z,22.18
2023-05-09T08:42:18.338Z,22.15
2023-05-09T08:44:50.146Z,22.96
2023-05-09T08:47:21.900Z,22.37
2023-05-09T08:49:54.911Z,21.50
2023-05-09T08:52:26.919Z,22.07
2023-05-09T08:54:58.801Z,21.22
2023-05-09T08:57:30.982Z,21.67
2023-05-09T09:00:04.957Z,20.66
2023-05-09T09:02:37.379Z,20.96
2023-05-09T09:05:16.385Z,21.32
2023-05-09T09:07:43.636Z,20.78
2023-05-09T09:10:16.578Z,20.92
2023-05-09T09:12:50.391Z,21.36
2023-05-09T09:15:22.969Z,20.15
2023-05-09T09:17:56.796Z,20.58
2023-05-09T09:20:29.207Z,20.71
2023-05-09T09:23:02.118Z,19.78
2023-05-09T09:25:34.155Z,20.18
2023-05-09T09:28:06.570Z,21.66
2023-05-09T09:30:48.485Z,21.75
2023-05-09T09:33:21.837Z,21.63
2023-05-09T09:35:54.858Z,21.15
2023-05-09T09:38:27.034Z,21.62
2023-05-09T09:40:59.600Z,23.09
2023-05-09T09:43:32.386Z,22.50
2023-05-09T09:46:04.673Z,22.57
2023-05-09T09:48:38.587Z,22.74
2023-05-09T09:51:12.777Z,22.84
2023-05-09T09:53:56.335Z,23.54
2023-05-09T09:56:31.447Z,23.49
2023-05-09T09:59:20.514Z,22.91
2023-05-09T10:02:09.314Z,23.58
2023-05-09T10:04:43.522Z,23.12
2023-05-09T10:07:16.244Z,22.90
2023-05-09T10:09:49.572Z,22.75
2023-05-09T10:12:23.133Z,22.66
2023-05-09T10:14:54.959Z,22.85
2023-05-09T10:17:27.745Z,23.21
2023-05-09T10:19:59.880Z,22.80
2023-05-09T10:22:35.694Z,23.68
2023-05-09T10:25:11.051Z,24.01
2023-05-09T10:27:46.167Z,23.05
2023-05-09T10:30:22.725Z,22.61
2023-05-09T10:32:59.773Z,22.74
2023-05-09T10:35:34.065Z,22.52
2023-05-09T10:38:06.151Z,22.37
2023-05-09T10:40:37.707Z,22.17
2023-05-09T10:43:09.273Z,22.30
2023-05-09T10:45:41.131Z,21.77
2023-05-09T10:48:12.820Z,22.17
2023-05-09T10:50:45.175Z,21.96
2023-05-09T10:53:21.887Z,22.18
2023-05-09T10:56:00.279Z,21.80
2023-05-09T10:58:40.972Z,22.17
2023-05-09T11:01:12.802Z,21.57
2023-05-09T11:03:57.039Z,22.21
2023-05-09T11:06:45.117Z,22.34
2023-05-09T11:09:37.509Z,22.59
2023-05-09T11:12:14.646Z,23.29
2023-05-09T11:14:48.905Z,22.87
2023-05-09T11:17:28.806Z,23.46
2023-05-09T11:20:03.432Z,23.63
2023-05-09T11:22:43.341Z,23.07
2023-05-09T11:25:17.250Z,23.69
2023-05-09T11:27:50.928Z,24.17
2023-05-09T11:30:23.414Z,24.10
2023-05-09T11:32:59.137Z,23.92
2023-05-09T11:35:31.600Z,23.20
2023-05-09T11:38:07.015Z,23.38
2023-05-09T11:40:39.322Z,23.57
2023-05-09T11:43:11.286Z,23.50
2023-05-09T11:45:43.612Z,23.74
2023-05-09T11:48:15.552Z,23.43
2023-05-09T11:50:49.815Z,23.48
2023-05-09T11:53:21.683Z,23.73
2023-05-09T11:55:53.568Z,24.11
2023-05-09T11:58:25.174Z,24.28
2023-05-09T12:00:57.625Z,24.10
2023-05-09T12:03:29.765Z,24.31
2023-05-09T12:06:01.906Z,24.89
2023-05-09T12:08:33.943Z,24.57
2023-05-09T12:11:12.324Z,24.49
2023-05-09T12:13:51.933Z,24.66
2023-05-09T12:16:23.693Z,24.37
2023-05-09T12:18:55.516Z,24.55
2023-05-09T12:21:28.503Z,24.42
2023-05-09T12:24:03.058Z,24.48
2023-05-09T12:29:18.858Z,24.53
2023-05-09T12:31:50.938Z,24.70
2023-05-09T12:34:23.091Z,24.42
2023-05-09T12:36:55.032Z,24.72
2023-05-09T12:39:27.088Z,24.51
2023-05-09T12:42:01.990Z,24.93
2023-05-09T12:44:34.008Z,25.14
2023-05-09T12:47:05.832Z,25.02
2023-05-09T12:49:38.047Z,25.61
2023-05-09T12:52:13.171Z,25.76
2023-05-09T12:54:46.324Z,25.20
2023-05-09T12:57:24.612Z,24.57
2023-05-09T13:00:00.372Z,24.49
2023-05-09T13:02:42.354Z,24.37
2023-05-09T13:05:18.156Z,24.57
2023-05-09T13:07:52.714Z,24.29
2023-05-09T13:10:31.003Z,24.64
2023-05-09T13:13:04.686Z,24.85
2023-05-09T13:15:36.234Z,24.84
2023-05-09T13:18:07.956Z,24.89
2023-05-09T13:20:39.573Z,25.19
2023-05-09T13:23:11.433Z,25.24
2023-05-09T13:25:43.200Z,25.44
2023-05-09T13:28:15.475Z,25.35
2023-05-09T13:30:48.308Z,25.45
2023-05-09T13:35:54.355Z,25.82
2023-05-09T13:38:26.265Z,25.84
2023-05-09T13:40:58.688Z,26.38
2023-05-09T13:43:30.672Z,25.98
2023-05-09T13:46:03.294Z,26.07
2023-05-09T13:48:35.779Z,26.28
2023-05-09T13:51:08.104Z,25.94
2023-05-09T13:53:40.106Z,25.59
2023-05-09T13:56:11.940Z,25.76
2023-05-09T13:58:43.641Z,25.49
2023-05-09T14:01:16.289Z,25.85
2023-05-09T14:06:33.436Z,25.17
2023-05-09T14:09:05.168Z,25.66
2023-05-09T14:11:37.359Z,25.61
2023-05-09T14:14:09.163Z,25.18
2023-05-09T14:16:40.890Z,25.31
2023-05-09T14:19:12.741Z,25.58
2023-05-09T14:21:45.146Z,25.91
2023-05-09T14:24:16.915Z,26.19
2023-05-09T14:26:48.998Z,26.06
2023-05-09T14:29:21.576Z,26.11
2023-05-09T14:31:53.282Z,26.94
2023-05-09T14:34:25.355Z,27.86
2023-05-09T14:36:57.835Z,26.75
2023-05-09T14:39:29.417Z,27.94
2023-05-09T14:42:01.178Z,27.33
2023-05-09T14:44:33.588Z,26.10
2023-05-09T14:47:05.424Z,27.67
2023-05-09T14:49:39.585Z,27.96
2023-05-09T14:52:11.929Z,29.98
2023-05-09T14:54:43.551Z,29.19
2023-05-09T14:57:15.298Z,28.72
2023-05-09T14:59:47.128Z,29.97
2023-05-09T15:02:18.846Z,29.57
2023-05-09T15:04:51.930Z,29.26
2023-05-09T15:07:24.068Z,30.12
2023-05-09T15:09:55.934Z,29.49
2023-05-09T15:15:20.274Z,28.52
2023-05-09T15:17:52.971Z,29.47
2023-05-09T15:20:25.185Z,30.27
2023-05-09T15:23:09.840Z,28.32
2023-05-09T15:25:42.928Z,29.74
2023-05-09T15:28:14.756Z,28.84
2023-05-09T15:30:46.574Z,29.30
2023-05-09T15:33:18.791Z,29.89
2023-05-09T15:35:50.428Z,30.00
2023-05-09T15:38:22.012Z,30.03
2023-05-09T15:40:53.693Z,29.66
2023-05-09T15:43:25.346Z,29.44
2023-05-09T15:45:57.263Z,30.15
2023-05-09T15:48:28.965Z,29.42
2023-05-09T15:51:02.707Z,29.74
2023-05-09T15:53:34.917Z,29.35
2023-05-09T15:56:07.908Z,30.06
2023-05-09T15:58:40.543Z,29.50
2023-05-09T16:01:13.903Z,29.70
2023-05-09T16:03:45.962Z,30.27
2023-05-09T16:06:17.916Z,29.47
2023-05-09T16:08:50.326Z,29.77
2023-05-09T16:11:23.582Z,30.37
2023-05-09T16:13:55.356Z,30.22
2023-05-09T16:16:27.024Z,30.48
2023-05-09T16:18:58.780Z,30.61
2023-05-09T16:21:32.234Z,30.71
2023-05-09T16:24:05.102Z,30.92
2023-05-09T16:26:36.823Z,30.91
2023-05-09T16:29:08.777Z,30.66
2023-05-09T16:31:42.351Z,29.60
2023-05-09T16:34:14.114Z,30.27
2023-05-09T16:36:48.224Z,30.52
2023-05-09T16:39:19.821Z,31.42
2023-05-09T16:41:51.523Z,31.03
2023-05-09T16:44:23.249Z,30.73
2023-05-09T16:46:54.935Z,31.11
2023-05-09T16:49:26.677Z,30.73
2023-05-09T16:51:59.456Z,30.83
2023-05-09T16:54:31.810Z,31.76
2023-05-09T16:57:04.509Z,31.48
2023-05-09T16:59:37.437Z,32.01
2023-05-09T17:02:10.687Z,30.99
2023-05-09T17:04:42.725Z,31.70
2023-05-09T17:07:15.512Z,31.11
2023-05-09T17:09:48.650Z,30.80
2023-05-09T17:12:20.286Z,32.08
2023-05-09T17:14:52.104Z,31.54
2023-05-09T17:17:23.685Z,32.75
2023-05-09T17:19:55.960Z,32.62
2023-05-09T17:22:27.922Z,32.35
2023-05-09T17:24:59.497Z,33.65
2023-05-09T17:27:31.809Z,33.07
2023-05-09T17:30:04.294Z,32.93
2023-05-09T17:32:36.811Z,32.66
2023-05-09T17:35:09.365Z,33.07
2023-05-09T17:37:41.701Z,33.12
2023-05-09T17:40:13.725Z,33.44
2023-05-09T17:42:45.814Z,33.55
2023-05-09T17:45:17.489Z,33.23
2023-05-09T17:47:49.901Z,33.69
2023-05-09T17:50:21.961Z,34.17
2023-05-09T17:52:55.188Z,34.46
2023-05-09T17:55:27.244Z,35.46
2023-05-09T17:57:58.849Z,34.79
2023-05-09T18:00:31.441Z,35.29
2023-05-09T18:03:04.006Z,34.41
2023-05-09T18:05:36.060Z,34.81
2023-05-09T18:08:08.277Z,34.14
2023-05-09T18:10:41.273Z,34.13
2023-05-09T18:13:14.150Z,34.73
2023-05-09T18:15:46.005Z,33.97
2023-05-09T18:18:17.673Z,33.87
2023-05-09T18:20:49.385Z,34.20
2023-05-09T18:23:22.286Z,34.43
2023-05-09T18:25:56.411Z,35.06
2023-05-09T18:28:29.237Z,34.82
2023-05-09T18:31:01.910Z,34.84
2023-05-09T18:33:38.282Z,35.09
2023-05-09T18:36:11.621Z,34.84
2023-05-09T18:38:44.782Z,34.76
2023-05-09T18:41:19.612Z,35.23
2023-05-09T18:43:51.533Z,35.61
2023-05-09T18:46:23.882Z,36.07
2023-05-09T18:48:56.513Z,37.16
2023-05-09T18:51:28.451Z,37.02
2023-05-09T18:54:00.249Z,36.95
2023-05-09T18:56:34.729Z,36.78
2023-05-09T18:59:09.132Z,37.13
2023-05-09T19:01:42.992Z,36.84
2023-05-09T19:04:16.971Z,37.20
2023-05-09T19:06:49.002Z,36.62
2023-05-09T19:09:21.779Z,36.46
2023-05-09T19:11:54.072Z,36.41
2023-05-09T19:14:27.035Z,37.38
2023-05-09T19:16:59.932Z,36.36
2023-05-09T19:19:32.514Z,36.73
2023-05-09T19:22:05.285Z,36.45
2023-05-09T19:24:39.763Z,36.66
2023-05-09T19:27:12.008Z,36.86
2023-05-09T19:29:44.488Z,36.77
2023-05-09T19:32:16.129Z,37.49
2023-05-09T19:34:47.872Z,37.43
2023-05-09T19:37:19.585Z,37.65
2023-05-09T19:39:51.484Z,38.23
2023-05-09T19:42:23.795Z,38.47
2023-05-09T19:44:55.630Z,38.83
2023-05-09T19:47:28.334Z,38.79
2023-05-09T19:50:02.185Z,39.23
2023-05-09T19:52:36.371Z,39.68
2023-05-09T19:55:09.019Z,39.58
2023-05-09T19:57:40.915Z,39.57
2023-05-09T20:00:13.853Z,39.74
2023-05-09T20:02:47.107Z,40.29
2023-05-09T20:05:18.901Z,40.08
2023-05-09T20:07:50.719Z,40.05
2023-05-09T20:10:23.042Z,40.70
2023-05-09T20:12:56.871Z,40.37
2023-05-09T20:15:29.205Z,40.73
2023-05-09T20:18:02.778Z,41.02
2023-05-09T20:20:35.141Z,41.02
2023-05-09T20:23:07.225Z,41.30
2023-05-09T20:25:38.830Z,41.14
2023-05-09T20:28:12.342Z,41.25
2023-05-09T20:30:44.043Z,41.36
2023-05-09T20:33:16.574Z,41.46
2023-05-09T20:35:49.220Z,41.44
2023-05-09T20:38:21.354Z,41.81
2023-05-09T20:40:53.097Z,41.89
2023-05-09T20:43:25.023Z,41.91
2023-05-09T20:45:57.060Z,42.21
2023-05-09T20:48:29.722Z,42.17
2023-05-09T20:51:01.246Z,42.24
2023-05-09T20:53:34.916Z,42.31
2023-05-09T20:56:06.762Z,42.26
2023-05-09T20:58:38.563Z,42.44
2023-05-09T21:01:10.426Z,42.48
2023-05-09T21:03:42.096Z,42.76
2023-05-09T21:06:13.817Z,43.05
2023-05-09T21:08:45.916Z,43.16
2023-05-09T21:11:18.751Z,42.72
2023-05-09T21:13:50.819Z,42.80
2023-05-09T21:16:23.140Z,42.86
2023-05-09T21:18:54.892Z,42.92
2023-05-09T21:21:26.735Z,43.03
2023-05-09T21:23:58.858Z,43.03
2023-05-09T21:26:30.716Z,43.15
2023-05-09T21:29:02.557Z,43.33
2023-05-09T21:31:34.511Z,43.46
2023-05-09T21:34:12.614Z,43.42
2023-05-09T21:36:44.238Z,43.40
2023-05-09T21:39:16.025Z,43.36
2023-05-09T21:41:47.733Z,43.45
2023-05-09T21:44:19.839Z,43.68
2023-05-09T21:46:51.573Z,43.59
2023-05-09T21:49:23.168Z,43.61
2023-05-09T21:51:54.700Z,43.78
2023-05-09T21:54:26.357Z,43.98
2023-05-09T21:56:57.989Z,44.38
2023-05-09T21:59:29.638Z,44.45
2023-05-09T22:02:01.680Z,44.38
2023-05-09T22:04:33.688Z,44.45
2023-05-09T22:07:05.294Z,44.44
2023-05-09T22:09:37.390Z,44.44
2023-05-09T22:12:09.421Z,44.62
2023-05-09T22:14:48.891Z,44.55
2023-05-09T22:17:14.783Z,44.76
2023-05-09T22:19:46.514Z,44.76
2023-05-09T22:22:18.083Z,44.88
2023-05-09T22:24:49.912Z,44.93
2023-05-09T22:27:21.477Z,45.18
2023-05-09T22:29:53.911Z,45.18
2023-05-09T22:32:25.501Z,45.54
2023-05-09T22:34:59.417Z,45.71
2023-05-09T22:37:31.175Z,46.26
2023-05-09T22:40:02.817Z,46.08
2023-05-09T22:42:34.930Z,46.32
2023-05-09T22:45:07.396Z,46.25
2023-05-09T22:47:39.568Z,46.37
2023-05-09T22:50:11.599Z,46.38
2023-05-09T22:52:43.353Z,47.04
2023-05-09T22:55:15.046Z,46.81
2023-05-09T22:57:47.473Z,46.91
2023-05-09T23:00:19.263Z,46.88
2023-05-09T23:02:51.115Z,46.81
2023-05-09T23:05:22.938Z,46.87
2023-05-09T23:07:54.864Z,47.07
2023-05-09T23:10:26.431Z,47.41
2023-05-09T23:12:58.030Z,47.21
2023-05-09T23:15:29.951Z,47.31
2023-05-09T23:18:01.788Z,47.44
2023-05-09T23:20:33.790Z,47.87
2023-05-09T23:23:06.176Z,47.74
2023-05-09T23:25:39.089Z,47.64
2023-05-09T23:28:10.921Z,47.77
2023-05-09T23:30:42.920Z,47.75
2023-05-09T23:33:14.529Z,47.97
2023-05-09T23:35:46.150Z,48.07
2023-05-09T23:38:17.992Z,48.07
2023-05-09T23:43:33.592Z,48.21
2023-05-09T23:46:05.503Z,48.24
2023-05-09T23:48:37.826Z,48.34
2023-05-09T23:51:09.541Z,48.12
2023-05-09T23:53:41.227Z,48.42
2023-05-09T23:56:12.809Z,48.19
2023-05-09T23:58:44.718Z,48.50
